Headlee Ranch, South Dakota
Current Conditions -  °F | °C
As of 11:52 PM on Sunday 23 Nov 2014 (Local Time) from KIEN Reporting Station
Overcast Overcast  
Wind Chill: 22°   Ceiling: 10000
Heat Index: 31°   Visibility: 10mi
Dew Point: 23°   Wind: 10mph
Humidity: 72%   Direction: 310°NW
Pressure: 29.74"   Gusts: NA
Location:  43.7587°N, 101.898°W
Report Text: KIEN 240652Z AUTO 31009KT 10SM SCT070 OVC100 M01/M05 A2974 RMK AO2 SLP086 T10061050 400671039
Loading
Personal Weather Stations






























Interactive Weather Map New forecast layout! Learn more

10-Day Weather Forecast

Advertisements
Track Severe Weather on mobile